sensor_id;sensor_type;location;lat;lon;timestamp;pressure;altitude;pressure_sealevel;temperature;humidity
21824;BME280;11074;48.596;9.238;2023-05-29T00:00:49;98215.28;;;18.60;59.60
21824;BME280;11074;48.596;9.238;2023-05-29T00:03:15;98224.44;;;18.32;60.12
21824;BME280;11074;48.596;9.238;2023-05-29T00:05:40;98218.53;;;18.30;60.60
21824;BME280;11074;48.596;9.238;2023-05-29T00:08:06;98213.13;;;18.30;60.56
21824;BME280;11074;48.596;9.238;2023-05-29T00:10:32;98218.16;;;18.23;59.88
21824;BME280;11074;48.596;9.238;2023-05-29T00:12:58;98227.47;;;18.16;60.64
21824;BME280;11074;48.596;9.238;2023-05-29T00:15:27;98224.97;;;18.20;60.61
21824;BME280;11074;48.596;9.238;2023-05-29T00:17:52;98218.25;;;18.17;60.80
21824;BME280;11074;48.596;9.238;2023-05-29T00:20:18;98223.34;;;18.19;60.89
21824;BME280;11074;48.596;9.238;2023-05-29T00:22:44;98227.97;;;18.18;61.19
21824;BME280;11074;48.596;9.238;2023-05-29T00:25:10;98217.72;;;18.15;61.03
21824;BME280;11074;48.596;9.238;2023-05-29T00:27:35;98214.69;;;17.90;61.14
21824;BME280;11074;48.596;9.238;2023-05-29T00:30:02;98215.03;;;17.56;61.38
21824;BME280;11074;48.596;9.238;2023-05-29T00:32:28;98213.91;;;17.38;61.83
21824;BME280;11074;48.596;9.238;2023-05-29T00:34:54;98207.00;;;17.32;62.65
21824;BME280;11074;48.596;9.238;2023-05-29T00:37:21;98206.84;;;17.24;62.27
21824;BME280;11074;48.596;9.238;2023-05-29T00:39:50;98201.06;;;17.30;63.48
21824;BME280;11074;48.596;9.238;2023-05-29T00:42:16;98208.66;;;17.47;62.07
21824;BME280;11074;48.596;9.238;2023-05-29T00:44:42;98207.75;;;17.51;62.16
21824;BME280;11074;48.596;9.238;2023-05-29T00:47:07;98209.94;;;17.49;62.00
21824;BME280;11074;48.596;9.238;2023-05-29T00:49:35;98207.69;;;17.38;62.14
21824;BME280;11074;48.596;9.238;2023-05-29T00:52:03;98215.03;;;17.19;62.43
21824;BME280;11074;48.596;9.238;2023-05-29T00:54:32;98208.25;;;17.03;62.70
21824;BME280;11074;48.596;9.238;2023-05-29T00:57:01;98215.13;;;16.95;62.98
21824;BME280;11074;48.596;9.238;2023-05-29T00:59:32;98217.44;;;17.02;62.88
21824;BME280;11074;48.596;9.238;2023-05-29T01:02:01;98202.47;;;17.09;63.11
21824;BME280;11074;48.596;9.238;2023-05-29T01:04:29;98206.13;;;17.00;62.70
21824;BME280;11074;48.596;9.238;2023-05-29T01:06:54;98203.88;;;17.07;63.05
21824;BME280;11074;48.596;9.238;2023-05-29T01:09:21;98204.25;;;17.00;63.55
21824;BME280;11074;48.596;9.238;2023-05-29T01:24:13;98230.44;;;17.00;66.28
21824;BME280;11074;48.596;9.238;2023-05-29T01:29:29;98214.50;;;17.17;64.94
21824;BME280;11074;48.596;9.238;2023-05-29T01:31:58;98219.63;;;17.18;65.02
21824;BME280;11074;48.596;9.238;2023-05-29T01:34:24;98208.34;;;17.16;64.64
21824;BME280;11074;48.596;9.238;2023-05-29T01:36:50;98221.38;;;17.09;64.46
21824;BME280;11074;48.596;9.238;2023-05-29T01:39:17;98223.56;;;16.88;64.10
21824;BME280;11074;48.596;9.238;2023-05-29T01:41:45;98220.94;;;16.83;64.99
21824;BME280;11074;48.596;9.238;2023-05-29T01:44:13;98223.91;;;16.63;64.92
21824;BME280;11074;48.596;9.238;2023-05-29T01:46:41;98211.72;;;16.42;65.70
21824;BME280;11074;48.596;9.238;2023-05-29T01:49:08;98222.56;;;16.37;65.14
21824;BME280;11074;48.596;9.238;2023-05-29T01:51:34;98217.28;;;16.51;64.71
21824;BME280;11074;48.596;9.238;2023-05-29T01:54:01;98228.78;;;16.37;65.15
21824;BME280;11074;48.596;9.238;2023-05-29T01:56:29;98226.84;;;16.19;66.52
21824;BME280;11074;48.596;9.238;2023-05-29T01:58:56;98233.44;;;16.32;67.37
21824;BME280;11074;48.596;9.238;2023-05-29T02:01:23;98233.09;;;16.38;67.25
21824;BME280;11074;48.596;9.238;2023-05-29T02:03:49;98236.44;;;16.54;66.91
21824;BME280;11074;48.596;9.238;2023-05-29T02:06:15;98233.09;;;16.62;66.84
21824;BME280;11074;48.596;9.238;2023-05-29T02:08:41;98230.69;;;16.61;66.29
21824;BME280;11074;48.596;9.238;2023-05-29T02:11:06;98226.59;;;16.63;66.28
21824;BME280;11074;48.596;9.238;2023-05-29T02:13:32;98227.41;;;16.64;65.95
21824;BME280;11074;48.596;9.238;2023-05-29T02:15:58;98229.28;;;16.39;65.42
21824;BME280;11074;48.596;9.238;2023-05-29T02:18:23;98229.13;;;16.31;66.82
21824;BME280;11074;48.596;9.238;2023-05-29T02:20:49;98235.50;;;16.40;66.71
21824;BME280;11074;48.596;9.238;2023-05-29T02:23:15;98228.94;;;15.99;65.58
21824;BME280;11074;48.596;9.238;2023-05-29T02:25:41;98232.22;;;15.96;66.15
21824;BME280;11074;48.596;9.238;2023-05-29T02:28:07;98234.16;;;16.14;67.42
21824;BME280;11074;48.596;9.238;2023-05-29T02:30:34;98233.44;;;16.32;67.13
21824;BME280;11074;48.596;9.238;2023-05-29T02:33:00;98231.53;;;16.32;67.13
21824;BME280;11074;48.596;9.238;2023-05-29T02:35:26;98234.06;;;16.24;67.09
21824;BME280;11074;48.596;9.238;2023-05-29T02:37:53;98240.88;;;16.16;67.49
21824;BME280;11074;48.596;9.238;2023-05-29T02:40:20;98230.78;;;16.03;66.73
21824;BME280;11074;48.596;9.238;2023-05-29T02:42:46;98238.50;;;16.15;67.42
21824;BME280;11074;48.596;9.238;2023-05-29T02:45:12;98239.69;;;16.27;67.57
21824;BME280;11074;48.596;9.238;2023-05-29T02:47:38;98232.91;;;16.30;67.04
21824;BME280;11074;48.596;9.238;2023-05-29T02:50:05;98232.91;;;16.30;67.16
21824;BME280;11074;48.596;9.238;2023-05-29T02:52:32;98231.47;;;16.14;65.49
21824;BME280;11074;48.596;9.238;2023-05-29T02:54:58;98227.00;;;16.04;65.34
21824;BME280;11074;48.596;9.238;2023-05-29T02:57:24;98224.28;;;15.81;65.80
21824;BME280;11074;48.596;9.238;2023-05-29T02:59:50;98221.38;;;16.01;67.57
21824;BME280;11074;48.596;9.238;2023-05-29T03:02:17;98225.31;;;16.08;67.39
21824;BME280;11074;48.596;9.238;2023-05-29T03:04:44;98221.25;;;16.11;67.12
21824;BME280;11074;48.596;9.238;2023-05-29T03:07:10;98233.41;;;16.08;67.22
21824;BME280;11074;48.596;9.238;2023-05-29T03:09:36;98230.03;;;15.98;67.15
21824;BME280;11074;48.596;9.238;2023-05-29T03:12:02;98223.50;;;16.04;67.37
21824;BME280;11074;48.596;9.238;2023-05-29T03:14:28;98232.47;;;15.94;66.62
21824;BME280;11074;48.596;9.238;2023-05-29T03:16:54;98225.88;;;15.82;67.91
21824;BME280;11074;48.596;9.238;2023-05-29T03:19:20;98221.94;;;15.69;67.50
21824;BME280;11074;48.596;9.238;2023-05-29T03:21:46;98224.88;;;15.72;66.50
21824;BME280;11074;48.596;9.238;2023-05-29T03:24:12;98213.75;;;15.45;67.47
21824;BME280;11074;48.596;9.238;2023-05-29T03:26:41;98221.47;;;15.62;68.88
21824;BME280;11074;48.596;9.238;2023-05-29T03:29:07;98219.50;;;15.72;68.18
21824;BME280;11074;48.596;9.238;2023-05-29T03:31:33;98219.19;;;15.74;68.30
21824;BME280;11074;48.596;9.238;2023-05-29T03:33:59;98224.28;;;15.75;68.23
21824;BME280;11074;48.596;9.238;2023-05-29T03:36:25;98223.03;;;15.68;68.03
21824;BME280;11074;48.596;9.238;2023-05-29T03:38:52;98224.06;;;15.72;68.01
21824;BME280;11074;48.596;9.238;2023-05-29T03:41:17;98222.75;;;15.69;68.29
21824;BME280;11074;48.596;9.238;2023-05-29T03:43:43;98237.59;;;15.67;67.73
21824;BME280;11074;48.596;9.238;2023-05-29T03:46:09;98241.31;;;15.71;68.55
21824;BME280;11074;48.596;9.238;2023-05-29T03:48:34;98238.56;;;15.42;68.06
21824;BME280;11074;48.596;9.238;2023-05-29T03:51:00;98232.25;;;15.23;67.11
21824;BME280;11074;48.596;9.238;2023-05-29T03:53:26;98241.25;;;14.54;69.99
21824;BME280;11074;48.596;9.238;2023-05-29T03:55:51;98230.94;;;14.72;69.82
21824;BME280;11074;48.596;9.238;2023-05-29T03:58:17;98235.63;;;15.00;70.39
21824;BME280;11074;48.596;9.238;2023-05-29T04:00:42;98234.41;;;15.21;70.21
21824;BME280;11074;48.596;9.238;2023-05-29T04:03:08;98239.72;;;15.31;69.54
21824;BME280;11074;48.596;9.238;2023-05-29T04:05:34;98247.22;;;15.39;69.07
21824;BME280;11074;48.596;9.238;2023-05-29T04:08:00;98235.59;;;15.44;69.21
21824;BME280;11074;48.596;9.238;2023-05-29T04:10:26;98245.97;;;15.27;68.29
21824;BME280;11074;48.596;9.238;2023-05-29T04:12:52;98239.94;;;14.96;68.36
21824;BME280;11074;48.596;9.238;2023-05-29T04:15:18;98248.44;;;14.74;69.08
21824;BME280;11074;48.596;9.238;2023-05-29T04:17:43;98256.78;;;14.73;68.25
21824;BME280;11074;48.596;9.238;2023-05-29T04:20:10;98246.66;;;14.98;69.50
21824;BME280;11074;48.596;9.238;2023-05-29T04:22:37;98247.47;;;14.99;68.45
21824;BME280;11074;48.596;9.238;2023-05-29T04:25:04;98261.53;;;14.91;68.47
21824;BME280;11074;48.596;9.238;2023-05-29T04:27:31;98265.31;;;14.90;68.76
21824;BME280;11074;48.596;9.238;2023-05-29T04:29:58;98278.41;;;15.01;68.50
21824;BME280;11074;48.596;9.238;2023-05-29T04:32:24;98278.56;;;15.25;69.55
21824;BME280;11074;48.596;9.238;2023-05-29T04:34:50;98275.25;;;15.33;69.62
21824;BME280;11074;48.596;9.238;2023-05-29T04:37:16;98280.94;;;15.32;69.16
21824;BME280;11074;48.596;9.238;2023-05-29T04:39:43;98284.97;;;15.34;70.01
21824;BME280;11074;48.596;9.238;2023-05-29T04:42:09;98280.63;;;15.38;69.52
21824;BME280;11074;48.596;9.238;2023-05-29T04:44:34;98274.31;;;15.19;69.40
21824;BME280;11074;48.596;9.238;2023-05-29T04:47:00;98277.81;;;15.14;69.61
21824;BME280;11074;48.596;9.238;2023-05-29T04:49:28;98285.97;;;14.99;70.44
21824;BME280;11074;48.596;9.238;2023-05-29T04:51:54;98291.00;;;15.16;69.80
21824;BME280;11074;48.596;9.238;2023-05-29T04:54:22;98293.09;;;15.29;69.92
21824;BME280;11074;48.596;9.238;2023-05-29T04:56:47;98291.38;;;15.38;69.70
21824;BME280;11074;48.596;9.238;2023-05-29T04:59:14;98286.56;;;15.40;69.38
21824;BME280;11074;48.596;9.238;2023-05-29T05:01:40;98291.94;;;15.40;68.93
21824;BME280;11074;48.596;9.238;2023-05-29T05:04:09;98298.66;;;15.48;69.56
21824;BME280;11074;48.596;9.238;2023-05-29T05:06:35;98303.22;;;15.47;69.47
21824;BME280;11074;48.596;9.238;2023-05-29T05:09:01;98298.63;;;15.53;69.52
21824;BME280;11074;48.596;9.238;2023-05-29T05:11:27;98294.03;;;15.53;69.39
21824;BME280;11074;48.596;9.238;2023-05-29T05:13:53;98290.78;;;15.56;69.19
21824;BME280;11074;48.596;9.238;2023-05-29T05:16:18;98302.13;;;15.53;69.03
21824;BME280;11074;48.596;9.238;2023-05-29T05:18:44;98305.47;;;15.30;69.69
21824;BME280;11074;48.596;9.238;2023-05-29T05:21:10;98295.72;;;15.39;69.83
21824;BME280;11074;48.596;9.238;2023-05-29T05:23:36;98300.53;;;15.47;70.13
21824;BME280;11074;48.596;9.238;2023-05-29T05:26:02;98295.66;;;15.49;69.71
21824;BME280;11074;48.596;9.238;2023-05-29T05:28:28;98301.88;;;15.50;69.61
21824;BME280;11074;48.596;9.238;2023-05-29T05:30:54;98298.56;;;15.58;69.52
21824;BME280;11074;48.596;9.238;2023-05-29T05:33:19;98300.75;;;15.56;70.20
21824;BME280;11074;48.596;9.238;2023-05-29T05:35:45;98305.88;;;15.52;70.02
21824;BME280;11074;48.596;9.238;2023-05-29T05:38:11;98311.56;;;15.51;70.06
21824;BME280;11074;48.596;9.238;2023-05-29T05:40:37;98307.72;;;15.57;69.96
21824;BME280;11074;48.596;9.238;2023-05-29T05:43:03;98301.00;;;15.59;70.80
21824;BME280;11074;48.596;9.238;2023-05-29T05:45:29;98300.41;;;15.62;70.06
21824;BME280;11074;48.596;9.238;2023-05-29T05:47:56;98307.38;;;15.68;70.14
21824;BME280;11074;48.596;9.238;2023-05-29T05:50:22;98311.69;;;15.69;70.56
21824;BME280;11074;48.596;9.238;2023-05-29T05:52:47;98307.94;;;15.65;69.37
21824;BME280;11074;48.596;9.238;2023-05-29T05:55:13;98313.28;;;15.70;70.68
21824;BME280;11074;48.596;9.238;2023-05-29T05:57:39;98313.84;;;15.67;69.95
21824;BME280;11074;48.596;9.238;2023-05-29T06:00:05;98309.91;;;15.55;69.62
21824;BME280;11074;48.596;9.238;2023-05-29T06:02:37;98313.72;;;15.54;69.74
21824;BME280;11074;48.596;9.238;2023-05-29T06:05:04;98321.25;;;15.52;70.29
21824;BME280;11074;48.596;9.238;2023-05-29T06:07:32;98316.66;;;15.52;69.75
21824;BME280;11074;48.596;9.238;2023-05-29T06:09:58;98324.19;;;15.55;70.17
21824;BME280;11074;48.596;9.238;2023-05-29T06:12:24;98325.78;;;15.61;69.64
21824;BME280;11074;48.596;9.238;2023-05-29T06:14:50;98318.69;;;15.70;70.08
21824;BME280;11074;48.596;9.238;2023-05-29T06:17:16;98318.97;;;15.69;69.56
21824;BME280;11074;48.596;9.238;2023-05-29T06:19:41;98317.56;;;15.76;70.01
21824;BME280;11074;48.596;9.238;2023-05-29T06:22:07;98321.88;;;15.77;69.44
21824;BME280;11074;48.596;9.238;2023-05-29T06:24:33;98317.00;;;15.80;69.14
21824;BME280;11074;48.596;9.238;2023-05-29T06:26:58;98320.22;;;15.82;69.36
21824;BME280;11074;48.596;9.238;2023-05-29T06:29:24;98319.09;;;15.88;69.41
21824;BME280;11074;48.596;9.238;2023-05-29T06:31:50;98323.88;;;15.96;69.21
21824;BME280;11074;48.596;9.238;2023-05-29T06:34:15;98327.91;;;15.98;68.96
21824;BME280;11074;48.596;9.238;2023-05-29T06:36:41;98323.84;;;16.01;68.94
21824;BME280;11074;48.596;9.238;2023-05-29T06:39:07;98325.72;;;16.00;68.61
21824;BME280;11074;48.596;9.238;2023-05-29T06:41:33;98330.00;;;16.06;69.26
21824;BME280;11074;48.596;9.238;2023-05-29T06:43:59;98327.81;;;16.08;68.80
21824;BME280;11074;48.596;9.238;2023-05-29T06:46:25;98328.56;;;16.14;69.16
21824;BME280;11074;48.596;9.238;2023-05-29T06:48:51;98331.53;;;16.17;69.66
21824;BME280;11074;48.596;9.238;2023-05-29T06:51:17;98328.72;;;16.27;69.12
21824;BME280;11074;48.596;9.238;2023-05-29T06:53:43;98337.06;;;16.31;69.12
21824;BME280;11074;48.596;9.238;2023-05-29T06:56:09;98336.44;;;16.39;69.26
21824;BME280;11074;48.596;9.238;2023-05-29T06:58:35;98333.69;;;16.44;68.26
21824;BME280;11074;48.596;9.238;2023-05-29T07:01:01;98329.31;;;16.48;68.79
21824;BME280;11074;48.596;9.238;2023-05-29T07:03:27;98335.78;;;16.52;68.88
21824;BME280;11074;48.596;9.238;2023-05-29T07:05:53;98330.47;;;16.71;70.87
21824;BME280;11074;48.596;9.238;2023-05-29T07:08:19;98328.66;;;16.85;70.29
21824;BME280;11074;48.596;9.238;2023-05-29T07:10:45;98333.66;;;16.96;69.93
21824;BME280;11074;48.596;9.238;2023-05-29T07:13:16;98334.97;;;16.99;68.30
21824;BME280;11074;48.596;9.238;2023-05-29T07:15:42;98330.16;;;16.96;67.91
21824;BME280;11074;48.596;9.238;2023-05-29T07:18:08;98333.91;;;17.00;67.80
21824;BME280;11074;48.596;9.238;2023-05-29T07:20:33;98339.75;;;17.07;68.29
21824;BME280;11074;48.596;9.238;2023-05-29T07:22:59;98329.78;;;17.26;68.78
21824;BME280;11074;48.596;9.238;2023-05-29T07:25:25;98331.25;;;17.37;68.41
21824;BME280;11074;48.596;9.238;2023-05-29T07:27:51;98343.88;;;17.42;67.66
21824;BME280;11074;48.596;9.238;2023-05-29T07:30:17;98337.00;;;17.49;67.02
21824;BME280;11074;48.596;9.238;2023-05-29T07:32:43;98336.69;;;17.56;67.67
21824;BME280;11074;48.596;9.238;2023-05-29T07:35:09;98338.50;;;17.61;68.39
21824;BME280;11074;48.596;9.238;2023-05-29T07:37:35;98333.81;;;17.66;67.81
21824;BME280;11074;48.596;9.238;2023-05-29T07:40:02;98328.25;;;17.76;68.68
21824;BME280;11074;48.596;9.238;2023-05-29T07:42:32;98332.78;;;17.81;68.42
21824;BME280;11074;48.596;9.238;2023-05-29T07:44:58;98335.38;;;17.86;67.97
21824;BME280;11074;48.596;9.238;2023-05-29T07:47:23;98330.94;;;17.95;67.45
21824;BME280;11074;48.596;9.238;2023-05-29T07:49:49;98336.47;;;18.03;67.23
21824;BME280;11074;48.596;9.238;2023-05-29T07:52:15;98328.56;;;18.07;67.04
21824;BME280;11074;48.596;9.238;2023-05-29T07:54:41;98328.19;;;18.13;66.92
21824;BME280;11074;48.596;9.238;2023-05-29T07:57:08;98321.88;;;18.18;67.15
21824;BME280;11074;48.596;9.238;2023-05-29T07:59:40;98325.78;;;18.26;66.76
21824;BME280;11074;48.596;9.238;2023-05-29T08:02:07;98329.75;;;18.33;66.96
21824;BME280;11074;48.596;9.238;2023-05-29T08:04:33;98324.41;;;18.42;66.33
21824;BME280;11074;48.596;9.238;2023-05-29T08:07:02;98334.00;;;18.53;65.88
21824;BME280;11074;48.596;9.238;2023-05-29T08:09:31;98324.19;;;18.57;64.88
21824;BME280;11074;48.596;9.238;2023-05-29T08:11:57;98334.50;;;18.68;62.82
21824;BME280;11074;48.596;9.238;2023-05-29T08:14:23;98332.94;;;18.81;63.30
21824;BME280;11074;48.596;9.238;2023-05-29T08:16:49;98327.50;;;18.81;63.28
21824;BME280;11074;48.596;9.238;2023-05-29T08:19:15;98329.19;;;18.91;61.15
21824;BME280;11074;48.596;9.238;2023-05-29T08:21:41;98326.88;;;18.98;60.79
21824;BME280;11074;48.596;9.238;2023-05-29T08:24:07;98318.34;;;19.04;60.72
21824;BME280;11074;48.596;9.238;2023-05-29T08:26:33;98330.72;;;19.10;60.01
21824;BME280;11074;48.596;9.238;2023-05-29T08:28:58;98323.44;;;19.19;58.66
21824;BME280;11074;48.596;9.238;2023-05-29T08:31:24;98329.78;;;19.28;60.47
21824;BME280;11074;48.596;9.238;2023-05-29T08:33:51;98324.72;;;19.35;59.83
21824;BME280;11074;48.596;9.238;2023-05-29T08:36:17;98334.38;;;19.42;58.14
21824;BME280;11074;48.596;9.238;2023-05-29T08:38:43;98331.44;;;19.52;56.02
21824;BME280;11074;48.596;9.238;2023-05-29T08:41:14;98318.78;;;19.61;56.44
21824;BME280;11074;48.596;9.238;2023-05-29T08:43:43;98319.94;;;19.68;57.71
21824;BME280;11074;48.596;9.238;2023-05-29T08:46:11;98323.94;;;19.71;59.66
21824;BME280;11074;48.596;9.238;2023-05-29T08:48:43;98318.81;;;19.69;55.58
21824;BME280;11074;48.596;9.238;2023-05-29T08:51:10;98310.88;;;19.73;58.25
21824;BME280;11074;48.596;9.238;2023-05-29T08:53:37;98316.50;;;19.76;54.94
21824;BME280;11074;48.596;9.238;2023-05-29T08:56:03;98311.44;;;19.83;57.74
21824;BME280;11074;48.596;9.238;2023-05-29T08:58:28;98313.72;;;19.90;57.21
21824;BME280;11074;48.596;9.238;2023-05-29T09:00:54;98313.97;;;20.02;55.40
21824;BME280;11074;48.596;9.238;2023-05-29T09:03:21;98316.53;;;20.07;58.12
21824;BME280;11074;48.596;9.238;2023-05-29T09:05:48;98317.72;;;20.15;57.26
21824;BME280;11074;48.596;9.238;2023-05-29T09:08:14;98314.56;;;20.21;58.45
21824;BME280;11074;48.596;9.238;2023-05-29T09:10:44;98316.19;;;20.22;58.67
21824;BME280;11074;48.596;9.238;2023-05-29T09:13:11;98322.94;;;20.25;55.73
21824;BME280;11074;48.596;9.238;2023-05-29T09:15:40;98317.19;;;20.26;55.02
21824;BME280;11074;48.596;9.238;2023-05-29T09:18:08;98312.41;;;20.32;57.29
21824;BME280;11074;48.596;9.238;2023-05-29T09:20:35;98316.47;;;20.43;53.54
21824;BME280;11074;48.596;9.238;2023-05-29T09:23:04;98317.00;;;20.53;55.77
21824;BME280;11074;48.596;9.238;2023-05-29T09:25:32;98316.06;;;20.58;55.94
21824;BME280;11074;48.596;9.238;2023-05-29T09:28:06;98323.44;;;20.66;52.89
21824;BME280;11074;48.596;9.238;2023-05-29T09:30:44;98311.16;;;20.69;52.88
21824;BME280;11074;48.596;9.238;2023-05-29T09:33:13;98310.84;;;20.79;52.34
21824;BME280;11074;48.596;9.238;2023-05-29T09:35:42;98310.44;;;20.94;52.96
21824;BME280;11074;48.596;9.238;2023-05-29T09:38:10;98306.16;;;21.01;53.92
21824;BME280;11074;48.596;9.238;2023-05-29T09:40:38;98307.31;;;21.09;53.20
21824;BME280;11074;48.596;9.238;2023-05-29T09:45:30;98303.66;;;21.22;49.08
21824;BME280;11074;48.596;9.238;2023-05-29T09:47:58;98316.13;;;21.32;51.28
21824;BME280;11074;48.596;9.238;2023-05-29T09:50:27;98314.56;;;21.39;48.72
21824;BME280;11074;48.596;9.238;2023-05-29T09:52:56;98317.59;;;21.46;49.09
21824;BME280;11074;48.596;9.238;2023-05-29T09:55:24;98311.19;;;21.51;50.43
21824;BME280;11074;48.596;9.238;2023-05-29T09:57:53;98318.44;;;21.55;50.34
21824;BME280;11074;48.596;9.238;2023-05-29T10:00:20;98308.50;;;21.59;51.63
21824;BME280;11074;48.596;9.238;2023-05-29T10:02:48;98308.97;;;21.53;48.82
21824;BME280;11074;48.596;9.238;2023-05-29T10:05:14;98313.75;;;21.56;48.89
21824;BME280;11074;48.596;9.238;2023-05-29T10:07:46;98310.09;;;21.60;50.45
21824;BME280;11074;48.596;9.238;2023-05-29T10:10:13;98309.94;;;21.74;49.74
21824;BME280;11074;48.596;9.238;2023-05-29T10:12:44;98306.41;;;21.91;48.69
21824;BME280;11074;48.596;9.238;2023-05-29T10:15:14;98304.97;;;21.85;51.44
21824;BME280;11074;48.596;9.238;2023-05-29T10:18:07;98303.38;;;21.84;45.08
21824;BME280;11074;48.596;9.238;2023-05-29T10:20:38;98297.25;;;22.04;42.72
21824;BME280;11074;48.596;9.238;2023-05-29T10:23:08;98308.13;;;22.21;42.87
21824;BME280;11074;48.596;9.238;2023-05-29T10:25:36;98299.16;;;22.29;44.25
21824;BME280;11074;48.596;9.238;2023-05-29T10:28:02;98297.34;;;22.33;44.38
21824;BME280;11074;48.596;9.238;2023-05-29T10:31:05;98295.25;;;22.47;44.54
21824;BME280;11074;48.596;9.238;2023-05-29T10:36:24;98303.38;;;22.56;42.66
21824;BME280;11074;48.596;9.238;2023-05-29T10:38:52;98295.53;;;22.63;45.61
21824;BME280;11074;48.596;9.238;2023-05-29T10:44:00;98294.38;;;22.72;45.84
21824;BME280;11074;48.596;9.238;2023-05-29T10:49:22;98284.56;;;22.80;43.75
21824;BME280;11074;48.596;9.238;2023-05-29T10:51:48;98289.19;;;22.79;42.94
21824;BME280;11074;48.596;9.238;2023-05-29T10:54:15;98295.41;;;22.88;46.04
21824;BME280;11074;48.596;9.238;2023-05-29T10:56:52;98298.41;;;22.96;46.00
21824;BME280;11074;48.596;9.238;2023-05-29T10:59:18;98289.84;;;23.06;44.51
21824;BME280;11074;48.596;9.238;2023-05-29T11:01:44;98293.34;;;23.15;45.80
21824;BME280;11074;48.596;9.238;2023-05-29T11:06:47;98287.09;;;23.35;42.66
21824;BME280;11074;48.596;9.238;2023-05-29T11:09:45;98288.91;;;23.31;43.97
21824;BME280;11074;48.596;9.238;2023-05-29T11:12:25;98283.38;;;23.39;42.08
21824;BME280;11074;48.596;9.238;2023-05-29T11:15:11;98276.00;;;23.61;40.67
21824;BME280;11074;48.596;9.238;2023-05-29T11:20:16;98281.69;;;23.88;41.87
21824;BME280;11074;48.596;9.238;2023-05-29T11:25:14;98268.56;;;24.02;41.71
21824;BME280;11074;48.596;9.238;2023-05-29T11:27:43;98284.53;;;24.13;40.88
21824;BME280;11074;48.596;9.238;2023-05-29T11:30:09;98279.09;;;24.25;42.46
21824;BME280;11074;48.596;9.238;2023-05-29T11:32:38;98276.94;;;24.30;38.70
21824;BME280;11074;48.596;9.238;2023-05-29T11:35:09;98279.28;;;24.40;41.95
21824;BME280;11074;48.596;9.238;2023-05-29T11:37:38;98278.47;;;24.40;42.90
21824;BME280;11074;48.596;9.238;2023-05-29T11:40:09;98274.34;;;24.46;41.00
21824;BME280;11074;48.596;9.238;2023-05-29T11:42:35;98272.53;;;24.62;39.37
21824;BME280;11074;48.596;9.238;2023-05-29T11:45:21;98271.53;;;24.66;43.31
21824;BME280;11074;48.596;9.238;2023-05-29T11:47:55;98265.25;;;24.78;40.93
21824;BME280;11074;48.596;9.238;2023-05-29T11:50:26;98258.69;;;24.79;39.88
21824;BME280;11074;48.596;9.238;2023-05-29T11:52:52;98259.72;;;24.99;41.35
21824;BME280;11074;48.596;9.238;2023-05-29T11:55:22;98266.19;;;25.06;38.12
21824;BME280;11074;48.596;9.238;2023-05-29T11:57:59;98266.19;;;25.06;40.48
21824;BME280;11074;48.596;9.238;2023-05-29T12:00:28;98268.66;;;25.36;37.68
21824;BME280;11074;48.596;9.238;2023-05-29T12:02:58;98266.13;;;25.43;38.40
21824;BME280;11074;48.596;9.238;2023-05-29T12:05:29;98279.34;;;25.53;37.29
21824;BME280;11074;48.596;9.238;2023-05-29T12:07:56;98272.53;;;25.74;35.60
21824;BME280;11074;48.596;9.238;2023-05-29T12:10:23;98269.84;;;25.90;36.72
21824;BME280;11074;48.596;9.238;2023-05-29T12:12:58;98262.56;;;26.10;38.19
21824;BME280;11074;48.596;9.238;2023-05-29T12:15:25;98264.50;;;26.21;37.93
21824;BME280;11074;48.596;9.238;2023-05-29T12:17:53;98270.13;;;26.13;36.83
21824;BME280;11074;48.596;9.238;2023-05-29T12:20:22;98262.09;;;26.20;38.60
21824;BME280;11074;48.596;9.238;2023-05-29T12:22:48;98262.28;;;25.99;37.98
21824;BME280;11074;48.596;9.238;2023-05-29T12:25:21;98270.94;;;26.13;36.91
21824;BME280;11074;48.596;9.238;2023-05-29T12:27:48;98265.47;;;26.29;36.13
21824;BME280;11074;48.596;9.238;2023-05-29T12:32:46;98268.28;;;26.32;39.45
21824;BME280;11074;48.596;9.238;2023-05-29T12:35:20;98266.19;;;26.41;33.70
21824;BME280;11074;48.596;9.238;2023-05-29T12:37:58;98264.13;;;26.54;37.38
21824;BME280;11074;48.596;9.238;2023-05-29T12:40:30;98261.66;;;26.65;33.78
21824;BME280;11074;48.596;9.238;2023-05-29T12:43:03;98260.97;;;26.83;36.80
21824;BME280;11074;48.596;9.238;2023-05-29T12:45:32;98266.13;;;26.85;36.78
21824;BME280;11074;48.596;9.238;2023-05-29T12:48:06;98273.25;;;26.89;32.20
21824;BME280;11074;48.596;9.238;2023-05-29T12:50:40;98271.66;;;26.88;33.99
21824;BME280;11074;48.596;9.238;2023-05-29T12:53:11;98257.56;;;27.05;35.15
21824;BME280;11074;48.596;9.238;2023-05-29T12:55:42;98265.19;;;26.96;35.10
21824;BME280;11074;48.596;9.238;2023-05-29T12:58:13;98259.91;;;26.88;38.93
21824;BME280;11074;48.596;9.238;2023-05-29T13:00:41;98268.03;;;27.00;33.20
21824;BME280;11074;48.596;9.238;2023-05-29T13:03:08;98266.94;;;27.04;33.82
21824;BME280;11074;48.596;9.238;2023-05-29T13:05:34;98259.41;;;27.01;35.85
21824;BME280;11074;48.596;9.238;2023-05-29T13:08:01;98267.59;;;26.98;36.46
21824;BME280;11074;48.596;9.238;2023-05-29T13:10:27;98261.34;;;27.17;29.19
21824;BME280;11074;48.596;9.238;2023-05-29T13:12:55;98266.78;;;27.32;29.72
21824;BME280;11074;48.596;9.238;2023-05-29T13:15:22;98272.72;;;27.34;35.92
21824;BME280;11074;48.596;9.238;2023-05-29T13:17:48;98254.91;;;27.09;33.77
21824;BME280;11074;48.596;9.238;2023-05-29T13:20:15;98257.41;;;26.98;32.08
21824;BME280;11074;48.596;9.238;2023-05-29T13:22:42;98268.09;;;27.19;30.32
21824;BME280;11074;48.596;9.238;2023-05-29T13:25:11;98259.38;;;27.33;32.59
21824;BME280;11074;48.596;9.238;2023-05-29T13:27:42;98258.41;;;27.41;30.91
21824;BME280;11074;48.596;9.238;2023-05-29T13:30:09;98251.38;;;27.62;27.99
21824;BME280;11074;48.596;9.238;2023-05-29T13:32:35;98262.94;;;27.72;31.45
21824;BME280;11074;48.596;9.238;2023-05-29T13:35:01;98256.13;;;27.65;35.26
21824;BME280;11074;48.596;9.238;2023-05-29T13:37:27;98258.47;;;27.63;32.96